CheckWX is a tool to help pilots better visualize weather data.  It is not intended as a substitute for an official pre-flight weather briefing.

23:34:35 UTC

EFOU TAF
Oulu Airport
Oulu / Oulunsalo, Finland
TAF EFOU 182030Z 1821/1921 16007KT 8000 OVC003 TEMPO 1821/1910 2000 RA OVC001 BECMG 1910/1912 8000 -RA BKN005 TEMPO 1912/1918 4000 -RADZ BKN010

Oct-18@
21:00 UTC

Oct-18 @ 21:00 UTC

Oct-19@
10:00 UTC

Oct-19 @ 10:00 UTC

TAF EFOU 182030Z 1821/1921 16007KT 8000 OVC003
Wind
  • 160° at 7 KTS
Cloud Levels
  • Overcast at 300' AGL

Oct-18@
21:00 UTC

Oct-18 @ 21:00 UTC

Oct-19@
10:00 UTC

Oct-19 @ 10:00 UTC

TEMPO 1821/1910 2000 RA OVC001

Temporary

Temporary Changes expected for less than half the time period

Conditions
Rain
Cloud Levels
  • Overcast at 100' AGL

Oct-19@
10:00 UTC

Oct-19 @ 10:00 UTC

Oct-19@
21:00 UTC

Oct-19 @ 21:00 UTC

BECMG 1910/1912 8000 -RA BKN005

Becoming

Becoming Conditions expected by Sat, Oct 19, 2019 @ 12:00 UTC

Wind
  • 160° at 7 KTS
Conditions
Light Rain
Cloud Levels
  • Broken at 500' AGL

Oct-19@
12:00 UTC

Oct-19 @ 12:00 UTC

Oct-19@
18:00 UTC

Oct-19 @ 18:00 UTC

TEMPO 1912/1918 4000 -RADZ BKN010

Temporary

Temporary Changes expected for less than half the time period

Conditions
Light Rain, Light Drizzle
Cloud Levels
  • Broken at 1,000' AGL